Latest Weather Observations for Middle Point

IDD60901

Issued at 1:35 pm CST Monday 28 July 2014 (issued every 10 minutes, with the page automatically refreshed every 10 minutes)

About weather observations | Map of Darwin area stations | Latest observations for Darwin area | Other Formats
Station Details ID: 014041 Name: MIDDLE POINT Lat: -12.61 Lon: 131.30 Height: 14.1 m
Data from the previous 72 hours. | See also: Recent months at Middle Point
Date/Time
CST
Tmp

°C
App
Tmp
°C
Dew
Point
°C
Rel
Hum
%
Delta-T

°C
Wind Press
QNH
hPa
Press
MSL
hPa
Rain
since
9 am
mm
Dir
 
Spd
km/h
Gust
km/h
Spd
kts
Gust
kts
28/01:30pm 32.1 29.5 7.7 22 13.4 E 11 19 6 10 1013.9 1013.8 0.0
28/01:00pm 32.2 27.7 8.4 23 13.3 E 22 33 12 18 1014.2 - 0.0
28/12:30pm 32.2 28.2 9.1 24 13.0 ESE 20 28 11 15 1014.7 1014.6 0.0
28/12:00pm 31.6 27.8 9.8 26 12.4 E 20 30 11 16 1015.3 1015.2 0.0
28/11:30am 31.4 27.8 11.7 29 11.5 ESE 22 33 12 18 1015.8 1015.7 0.0
28/11:00am 30.5 27.6 12.9 34 10.4 ESE 20 28 11 15 1016.2 - 0.0
28/10:30am 28.6 25.0 12.9 38 9.2 ESE 24 35 13 19 1016.5 1016.4 0.0
28/10:00am 28.4 25.8 13.9 41 8.7 ESE 20 28 11 15 1016.7 - 0.0
28/09:30am 26.8 26.5 15.5 50 6.9 ESE 11 15 6 8 1016.8 1016.7 0.0
28/09:00am 25.5 26.2 15.5 54 6.1 ESE 6 11 3 6 1016.8 1016.7 0.0
28/08:30am 21.7 24.1 18.9 84 1.8 SW 4 6 2 3 1016.6 1016.5 0.0
28/08:00am 18.3 20.5 17.5 95 0.5 WSW 2 4 1 2 1016.3 - 0.0
28/07:30am 15.1 16.4 14.0 93 0.6 CALM 0 0 0 0 1016.1 1016.0 0.0
28/07:00am 15.0 16.1 13.5 91 0.8 CALM 0 0 0 0 1016.1 - 0.0
28/06:30am 15.7 17.2 14.6 93 0.6 CALM 0 0 0 0 1015.9 1015.8 0.0
28/06:00am 15.8 17.2 14.5 92 0.7 CALM 0 0 0 0 1015.5 1015.4 0.0
28/05:30am 15.8 17.2 14.5 92 0.7 CALM 0 0 0 0 1015.2 1015.1 0.0
28/05:00am 16.6 18.1 14.6 88 1.1 CALM 0 0 0 0 1015.1 - 0.0
28/04:30am 17.3 19.3 16.0 92 0.8 CALM 0 0 0 0 1014.9 1014.8 0.0
28/04:00am 17.1 18.9 15.6 91 0.9 CALM 0 0 0 0 1014.7 - 0.0
28/03:30am 16.8 18.2 15.3 91 0.9 SW 2 4 1 2 1014.7 1014.6 0.0
28/03:00am 17.5 19.2 15.3 87 1.3 CALM 0 2 0 1 1015.0 1014.9 0.0
28/02:30am 17.8 19.9 16.3 91 0.9 CALM 0 0 0 0 1015.2 1015.1 0.0
28/02:00am 17.8 19.3 15.8 88 1.2 N 2 4 1 2 1015.4 - 0.0
28/01:30am 18.2 20.0 15.6 85 1.5 CALM 0 0 0 0 1015.6 1015.5 0.0
28/01:00am 20.2 22.1 16.8 81 2.1 SW 2 6 1 3 1016.0 - 0.0
28/12:30am 20.3 22.7 16.9 81 2.1 CALM 0 0 0 0 1016.1 1016.0 0.0
28/12:00am 20.2 22.1 16.8 81 2.1 SW 2 6 1 3 1016.0 1015.9 0.0
 
Date/Time
CST
Tmp

°C
App
Tmp
°C
Dew
Point
°C
Rel
Hum
%
Delta-T

°C
Wind Press
QNH
hPa
Press
MSL
hPa
Rain
since
9 am
mm
Dir
 
Spd
km/h
Gust
km/h
Spd
kts
Gust
kts
27/11:30pm 20.6 22.0 17.4 82 2.0 SSW 6 7 3 4 1015.8 1015.7 0.0
27/11:00pm 18.6 19.4 15.8 84 1.7 S 6 7 3 4 1015.9 - 0.0
27/10:30pm 18.6 20.5 15.7 83 1.7 CALM 0 4 0 2 1015.8 1015.7 0.0
27/10:00pm 19.8 21.5 16.1 79 2.2 N 2 4 1 2 1015.6 - 0.0
27/09:30pm 20.1 21.8 15.3 74 2.8 CALM 0 0 0 0 1015.4 1015.3 0.0
27/09:00pm 21.1 23.3 16.5 75 2.8 CALM 0 0 0 0 1015.3 1015.2 0.0
27/08:30pm 21.5 22.7 16.0 71 3.3 N 4 6 2 3 1015.0 1014.9 0.0
27/08:00pm 22.3 23.2 16.1 68 3.7 N 6 7 3 4 1014.6 - 0.0
27/07:30pm 23.0 23.9 16.1 65 4.2 N 6 7 3 4 1014.1 1014.0 0.0
27/07:00pm 25.1 25.1 16.3 58 5.4 N 11 13 6 7 1013.7 - 0.0
27/06:30pm 26.5 26.9 17.3 57 5.8 N 11 15 6 8 1013.2 1013.1 0.0
27/06:00pm 28.4 28.0 16.3 47 7.5 N 13 17 7 9 1012.8 1012.7 0.0
27/05:30pm 29.8 29.0 16.2 43 8.5 N 15 20 8 11 1012.4 1012.3 0.0
27/05:00pm 31.2 30.0 16.0 40 9.5 N 17 22 9 12 1012.1 - 0.0
27/04:30pm 31.7 30.8 14.8 36 10.4 NE 13 19 7 10 1012.1 1012.0 0.0
27/04:00pm 33.1 31.6 13.2 30 12.0 E 13 20 7 11 1012.1 - 0.0
27/03:30pm 32.4 29.8 12.1 29 12.0 E 17 28 9 15 1012.4 1012.3 0.0
27/03:00pm 32.1 30.1 12.8 30 11.5 SE 15 24 8 13 1012.6 1012.5 0.0
27/02:30pm 32.8 30.3 13.4 30 11.7 ESE 19 32 10 17 1013.0 1012.9 0.0
27/02:00pm 32.8 28.9 13.4 30 11.7 E 26 39 14 21 1013.6 - 0.0
27/01:30pm 33.0 30.5 13.6 31 11.7 E 19 30 10 16 1014.1 1014.0 0.0
27/01:00pm 32.4 29.0 13.6 32 11.4 ESE 24 35 13 19 1014.8 - 0.0
27/12:30pm 31.4 28.6 13.2 33 10.9 E 20 28 11 15 1015.3 1015.2 0.0
27/12:00pm 31.8 29.3 14.0 34 10.8 E 20 32 11 17 1015.9 1015.8 0.0
27/11:30am 30.7 28.5 14.8 38 9.7 E 20 28 11 15 1016.5 1016.4 0.0
27/11:00am 30.4 28.0 14.5 38 9.7 E 20 30 11 16 1017.0 - 0.0
27/10:30am 29.7 27.7 15.0 40 9.0 ESE 19 28 10 15 1017.4 1017.3 0.0
27/10:00am 28.6 27.4 16.2 47 7.7 ESE 17 24 9 13 1017.4 - 0.0
27/09:30am 26.4 27.9 18.0 60 5.3 SE 7 13 4 7 1017.5 1017.4 0.0
27/09:00am 24.4 26.3 19.0 72 3.4 S 7 11 4 6 1017.4 1017.3 0.0
27/08:30am 21.4 23.9 19.0 86 1.5 S 4 6 2 3 1017.3 1017.2 0.0
27/08:00am 19.2 22.2 18.4 95 0.5 CALM 0 4 0 2 1017.1 - 0.0
27/07:30am 16.6 17.3 15.6 94 0.6 SSW 6 7 3 4 1016.7 1016.6 0.0
27/07:00am 16.5 17.6 15.5 94 0.6 SSW 4 4 2 2 1016.5 - 0.0
27/06:30am 16.3 17.6 15.2 93 0.6 SSW 2 4 1 2 1016.3 1016.2 0.0
27/06:00am 16.5 17.9 15.5 94 0.6 SSW 2 4 1 2 1015.9 1015.8 0.0
27/05:30am 16.8 17.9 15.7 93 0.6 S 4 4 2 2 1015.9 1015.8 0.0
27/05:00am 16.9 17.6 15.6 92 0.8 S 6 6 3 3 1015.9 - 0.0
27/04:30am 17.1 18.3 15.8 92 0.8 S 4 4 2 2 1015.8 1015.7 0.0
27/04:00am 17.4 19.1 16.1 92 0.8 SSW 2 4 1 2 1015.9 - 0.0
27/03:30am 17.3 18.4 15.5 89 1.1 SSW 4 4 2 2 1016.1 1016.0 0.0
27/03:00am 17.7 19.3 16.0 90 1.0 ENE 2 4 1 2 1016.3 1016.2 0.0
27/02:30am 17.5 19.4 15.7 89 1.1 CALM 0 0 0 0 1016.6 1016.5 0.0
27/02:00am 18.1 20.2 16.3 89 1.1 CALM 0 0 0 0 1016.8 - 0.0
27/01:30am 18.3 20.2 15.7 85 1.5 CALM 0 0 0 0 1017.2 1017.1 0.0
27/01:00am 19.3 20.9 16.9 86 1.5 SSE 4 6 2 3 1017.4 - 0.0
27/12:30am 19.6 22.2 17.4 87 1.3 CALM 0 0 0 0 1017.2 1017.1 0.0
27/12:00am 19.8 22.2 17.0 84 1.7 CALM 0 0 0 0 1017.1 1017.0 0.0
 
Date/Time
CST
Tmp

°C
App
Tmp
°C
Dew
Point
°C
Rel
Hum
%
Delta-T

°C
Wind Press
QNH
hPa
Press
MSL
hPa
Rain
since
9 am
mm
Dir
 
Spd
km/h
Gust
km/h
Spd
kts
Gust
kts
26/11:30pm 20.1 21.5 16.5 80 2.2 SW 4 6 2 3 1017.1 1017.0 0.0
26/11:00pm 21.4 23.2 17.4 78 2.5 S 4 6 2 3 1017.1 - 0.0
26/10:30pm 20.9 23.1 17.5 81 2.1 SSW 2 7 1 4 1017.1 1017.0 0.0
26/10:00pm 20.1 21.5 16.3 79 2.3 NNW 4 9 2 5 1016.8 - 0.0
26/09:30pm 21.2 22.5 17.0 77 2.6 NNE 6 9 3 5 1016.5 1016.4 0.0
26/09:00pm 20.7 21.8 15.5 72 3.1 NNE 4 6 2 3 1016.4 1016.3 0.0
26/08:30pm 20.8 21.5 16.0 74 2.9 N 7 13 4 7 1016.1 1016.0 0.0
26/08:00pm 21.1 22.3 15.9 72 3.1 N 4 6 2 3 1015.6 - 0.0
26/07:30pm 22.3 22.7 15.2 64 4.2 N 7 7 4 4 1015.3 1015.2 0.0
26/07:00pm 24.1 24.2 15.6 59 5.1 N 9 11 5 6 1015.0 - 0.0
26/06:30pm 26.2 26.0 15.6 52 6.4 N 11 15 6 8 1014.6 1014.5 0.0
26/06:00pm 28.7 27.8 14.9 43 8.4 N 13 17 7 9 1014.1 1014.0 0.0
26/05:30pm 31.6 29.3 10.3 27 12.2 ENE 13 19 7 10 1013.8 1013.7 0.0
26/05:00pm 32.1 29.5 10.8 27 12.3 ENE 15 20 8 11 1013.6 - 0.0
26/04:30pm 32.6 30.6 10.0 25 12.9 E 11 19 6 10 1013.4 1013.3 0.0
26/04:00pm 33.3 30.9 10.0 24 13.4 E 13 22 7 12 1013.3 - 0.0
26/03:30pm 32.7 29.4 9.5 24 13.2 E 17 26 9 14 1013.4 1013.3 0.0
26/03:00pm 32.5 30.8 9.9 25 12.9 E 9 17 5 9 1013.7 1013.6 0.0
26/02:30pm 32.4 30.5 10.4 26 12.7 ESE 11 17 6 9 1013.9 1013.8 0.0
26/02:00pm 31.7 29.9 12.0 30 11.6 E 13 24 7 13 1014.2 - 0.0
26/01:30pm 32.4 30.0 12.6 30 11.8 E 17 30 9 16 1014.7 1014.6 0.0
26/01:00pm 31.4 29.6 13.2 33 10.9 ESE 15 24 8 13 1015.3 - 0.0
26/12:30pm 31.1 29.1 13.8 34 10.4 E 17 24 9 13 1015.9 1015.8 0.0
26/12:00pm 30.1 28.9 15.0 40 9.2 ESE 15 28 8 15 1016.6 1016.5 0.0
26/11:30am 29.3 27.5 15.4 42 8.5 ESE 19 30 10 16 1017.2 1017.1 0.0
26/11:00am 28.9 28.1 16.1 46 7.9 ESE 15 22 8 12 1017.6 - 0.0
26/10:30am 28.3 28.3 17.2 51 7.0 E 13 22 7 12 1017.8 1017.7 0.0
26/10:00am 27.2 28.5 18.5 59 5.6 E 9 15 5 8 1017.8 - 0.0
26/09:30am 24.8 27.1 19.8 74 3.2 ESE 7 11 4 6 1017.9 1017.8 0.0
26/09:00am 23.0 25.6 20.1 84 1.9 SE 6 9 3 5 1017.7 1017.6 0.0
26/08:30am 20.1 22.7 19.3 95 0.5 S 4 4 2 2 1017.5 1017.4 0.0
26/08:00am 17.1 18.8 16.3 95 0.5 S 2 2 1 1 1017.4 - 0.0
26/07:30am 15.3 16.7 14.3 94 0.6 CALM 0 4 0 2 1017.2 1017.1 0.0
26/07:00am 15.7 17.3 14.9 95 0.5 CALM 0 0 0 0 1016.9 - 0.0
26/06:30am 15.5 16.9 14.5 94 0.6 CALM 0 0 0 0 1016.7 1016.6 0.0
26/06:00am 15.3 16.7 14.3 94 0.6 CALM 0 0 0 0 1016.7 1016.6 0.0
26/05:30am 15.2 16.5 14.1 93 0.6 CALM 0 0 0 0 1016.6 1016.5 0.0
26/05:00am 16.2 17.9 15.2 94 0.6 CALM 0 0 0 0 1016.3 - 0.0
26/04:30am 16.4 18.2 15.4 94 0.6 CALM 0 0 0 0 1016.2 1016.1 0.0
26/04:00am 15.7 17.0 14.2 91 0.9 CALM 0 0 0 0 1016.3 - 0.0
26/03:30am 17.5 19.6 16.2 92 0.8 CALM 0 0 0 0 1016.3 1016.2 0.0
26/03:00am 17.3 19.4 16.2 93 0.7 CALM 0 0 0 0 1016.4 1016.3 0.0
26/02:30am 16.7 17.7 15.4 92 0.8 W 4 4 2 2 1016.3 1016.2 0.0
26/02:00am 16.8 18.5 15.3 91 0.9 CALM 0 0 0 0 1016.4 - 0.0
26/01:30am 18.0 19.8 16.5 91 0.9 ENE 2 4 1 2 1016.6 1016.5 0.0
26/01:00am 17.9 18.9 16.4 91 0.9 E 6 7 3 4 1016.7 - 0.0
26/12:30am 17.9 19.7 16.4 91 0.9 ENE 2 4 1 2 1016.6 1016.5 0.0
26/12:00am 18.1 20.2 16.3 89 1.1 CALM 0 0 0 0 1016.8 1016.7 0.0
 
Date/Time
CST
Tmp

°C
App
Tmp
°C
Dew
Point
°C
Rel
Hum
%
Delta-T

°C
Wind Press
QNH
hPa
Press
MSL
hPa
Rain
since
9 am
mm
Dir
 
Spd
km/h
Gust
km/h
Spd
kts
Gust
kts
25/11:30pm 19.1 20.9 17.4 90 1.0 ENE 4 9 2 5 1016.7 1016.6 0.0
25/11:00pm 19.4 21.8 17.0 86 1.5 CALM 0 0 0 0 1016.5 - 0.0
25/10:30pm 20.1 21.2 18.1 88 1.2 NNE 9 11 5 6 1016.5 1016.4 0.0
25/10:00pm 19.4 21.6 17.5 89 1.2 W 2 4 1 2 1016.2 - 0.0
25/09:30pm 19.8 21.1 17.2 85 1.6 W 6 6 3 3 1016.2 1016.1 0.0
25/09:00pm 19.9 22.6 17.7 87 1.4 CALM 0 0 0 0 1016.2 1016.1 0.0
25/08:30pm 20.6 22.7 18.0 85 1.6 W 4 7 2 4 1015.7 1015.6 0.0
25/08:00pm 20.3 21.7 17.3 83 1.8 WNW 6 7 3 4 1015.1 - 0.0
25/07:30pm 21.6 23.7 18.0 80 2.2 NNW 4 6 2 3 1014.6 1014.5 0.0
25/07:00pm 23.5 25.3 18.4 73 3.2 N 6 7 3 4 1014.0 - 0.0
25/06:30pm 24.5 25.7 18.2 68 4.0 N 9 9 5 5 1013.8 1013.7 0.0
25/06:00pm 26.2 27.6 18.6 63 4.8 N 9 13 5 7 1013.7 1013.6 0.0
25/05:30pm 27.5 29.0 18.8 59 5.6 N 9 13 5 7 1013.4 1013.3 0.0
25/05:00pm 28.0 28.4 18.1 55 6.3 N 13 19 7 10 1012.9 - 0.0
25/04:30pm 31.0 30.0 13.3 34 10.6 ESE 11 17 6 9 1012.7 1012.6 0.0
25/04:00pm 31.6 30.8 12.9 32 11.1 E 9 15 5 8 1012.8 - 0.0
25/03:30pm 31.2 30.8 13.0 33 10.8 SE 7 13 4 7 1013.0 1012.9 0.0
25/03:00pm 32.3 32.1 13.0 31 11.6 NE 6 13 3 7 1013.3 1013.2 0.0
25/02:30pm 31.9 31.2 13.2 32 11.2 E 9 17 5 9 1013.6 1013.5 0.0
25/02:00pm 32.0 32.2 14.6 34 10.7 E 7 13 4 7 1013.9 - 0.0

Latest Capital City Observations: Canberra | Sydney | Melbourne | Brisbane | Adelaide | Perth | Hobart | Darwin

Other Formats:

Comma delimited format used in spreadsheet applications
http://www.bom.gov.au/fwo/IDD60901/IDD60901.95121.axf

JavaScript Object Notation format (JSON) in row-major order
http://www.bom.gov.au/fwo/IDD60901/IDD60901.95121.json